METAR Data
IDs: Format: Raw Decoded Include TAF

Data at: 1124 UTC 28 Sep 2021

PKWA 281120Z AUTO 08004KT 10SM CLR 26/24 A2986 RMK AO2 T02610242